createdAt,value
2019-01-29T00:00:35.898Z,99836.46
2019-01-29T00:03:44.469Z,99844.55
2019-01-29T00:06:53.519Z,99838.63
2019-01-29T00:10:02.075Z,99853.08
2019-01-29T00:13:10.553Z,99846.45
2019-01-29T00:16:29.372Z,99847.48
2019-01-29T00:19:37.933Z,99848.84
2019-01-29T00:22:46.508Z,99860.75
2019-01-29T00:25:55.076Z,99849.67
2019-01-29T00:29:03.941Z,99855.34
2019-01-29T00:32:12.520Z,99853.53
2019-01-29T00:35:21.112Z,99859.17
2019-01-29T00:38:39.952Z,99859.84
2019-01-29T00:41:48.804Z,99858.13
2019-01-29T00:44:57.381Z,99861.65
2019-01-29T00:48:06.497Z,99858.23
2019-01-29T00:51:15.575Z,99866.22
2019-01-29T00:54:34.420Z,99865.69
2019-01-29T00:57:43.070Z,99875.64
2019-01-29T01:00:51.545Z,99871.33
2019-01-29T01:04:00.122Z,99883.47
2019-01-29T01:07:08.747Z,99882.17
2019-01-29T01:10:21.030Z,99877.79
2019-01-29T01:13:29.514Z,99887.58
2019-01-29T01:16:38.147Z,99887.51
2019-01-29T01:19:57.043Z,99884.05
2019-01-29T01:23:05.753Z,99894.98
2019-01-29T01:26:14.308Z,99894.04
2019-01-29T01:29:22.896Z,99890.53
2019-01-29T01:32:31.444Z,99900.23
2019-01-29T01:35:39.944Z,99898.58
2019-01-29T01:38:58.925Z,99906.98
2019-01-29T01:42:07.396Z,99913.91
2019-01-29T01:45:16.094Z,99908.89
2019-01-29T01:48:24.762Z,99910.77
2019-01-29T01:51:33.351Z,99912.98
2019-01-29T01:54:42.033Z,99919.83
2019-01-29T01:57:50.703Z,99924.05
2019-01-29T02:00:59.346Z,99927.28
2019-01-29T02:04:18.219Z,99924.45
2019-01-29T02:07:26.849Z,99928.03
2019-01-29T02:10:35.430Z,99927.69
2019-01-29T02:13:43.993Z,99923.45
2019-01-29T02:16:52.632Z,99928.95
2019-01-29T02:20:01.216Z,99934.45
2019-01-29T02:23:19.950Z,99934.30
2019-01-29T02:26:28.656Z,99938.64
2019-01-29T02:29:37.137Z,99942.89
2019-01-29T02:32:45.699Z,99934.30
2019-01-29T02:35:54.171Z,99937.67
2019-01-29T02:39:12.992Z,99940.03
2019-01-29T02:42:21.569Z,99944.91
2019-01-29T02:45:30.147Z,99948.72
2019-01-29T02:48:38.818Z,99941.44
2019-01-29T02:51:47.395Z,99951.61
2019-01-29T02:54:55.972Z,99951.67
2019-01-29T02:58:04.592Z,99955.52
2019-01-29T03:01:23.500Z,99963.34
2019-01-29T03:04:32.296Z,99958.39
2019-01-29T03:07:41.022Z,99957.63
2019-01-29T03:10:49.601Z,99959.81
2019-01-29T03:13:58.152Z,99972.47
2019-01-29T03:17:06.873Z,99970.40
2019-01-29T03:20:16.703Z,99984.35
2019-01-29T03:23:27.593Z,99979.97
2019-01-29T03:26:35.542Z,99984.03
2019-01-29T03:29:43.998Z,99987.05
2019-01-29T03:32:52.588Z,99982.36
2019-01-29T03:36:02.390Z,99984.84
2019-01-29T03:39:21.298Z,99980.48
2019-01-29T03:42:29.819Z,99982.08
2019-01-29T03:45:38.431Z,99988.00
2019-01-29T03:48:47.152Z,99998.94
2019-01-29T03:51:55.732Z,99995.45
2019-01-29T03:55:04.811Z,100000.68
2019-01-29T03:58:13.428Z,99996.73
2019-01-29T04:01:22.011Z,100003.06
2019-01-29T04:04:30.582Z,100008.32
2019-01-29T04:07:49.549Z,100009.38
2019-01-29T04:10:58.016Z,100008.11
2019-01-29T04:14:06.811Z,100011.67
2019-01-29T04:17:15.499Z,100011.11
2019-01-29T04:20:24.054Z,100018.27
2019-01-29T04:23:32.640Z,100014.86
2019-01-29T04:26:41.277Z,100023.22
2019-01-29T04:30:00.104Z,100018.70
2019-01-29T04:33:08.748Z,100030.23
2019-01-29T04:36:17.315Z,100022.48
2019-01-29T04:39:25.900Z,100029.94
2019-01-29T04:42:34.477Z,100029.30
2019-01-29T04:45:43.039Z,100030.59
2019-01-29T04:49:01.938Z,100031.78
2019-01-29T04:52:10.408Z,100028.18
2019-01-29T04:55:19.422Z,100033.67
2019-01-29T04:58:27.975Z,100046.57
2019-01-29T05:01:36.551Z,100048.98
2019-01-29T05:04:45.149Z,100057.77
2019-01-29T05:07:53.729Z,100053.04
2019-01-29T05:11:02.297Z,100050.64
2019-01-29T05:14:21.245Z,100056.56
2019-01-29T05:17:29.854Z,100058.25
2019-01-29T05:20:38.439Z,100068.78
2019-01-29T05:23:47.029Z,100062.45
2019-01-29T05:26:55.517Z,100062.40
2019-01-29T05:30:04.310Z,100065.34
2019-01-29T05:33:12.889Z,100059.84
2019-01-29T05:36:31.846Z,100061.75
2019-01-29T05:39:40.553Z,100064.13
2019-01-29T05:42:49.226Z,100057.11
2019-01-29T05:45:57.811Z,100054.97
2019-01-29T05:49:06.465Z,100057.44
2019-01-29T05:52:14.938Z,100058.72
2019-01-29T05:55:23.594Z,100060.09
2019-01-29T05:58:42.458Z,100068.43
2019-01-29T06:01:50.935Z,100065.95
2019-01-29T06:04:59.541Z,100067.06
2019-01-29T06:08:08.076Z,100069.69
2019-01-29T06:11:16.653Z,100068.94
2019-01-29T06:14:35.722Z,100080.41
2019-01-29T06:17:44.208Z,100079.51
2019-01-29T06:20:52.847Z,100088.53
2019-01-29T06:24:01.433Z,100086.80
2019-01-29T06:27:10.077Z,100081.22
2019-01-29T06:30:20.560Z,100086.34
2019-01-29T06:33:29.057Z,100089.38
2019-01-29T06:36:48.010Z,100097.02
2019-01-29T06:39:56.645Z,100101.46
2019-01-29T06:43:05.210Z,100101.94
2019-01-29T06:46:13.708Z,100113.08
2019-01-29T06:49:22.337Z,100109.08
2019-01-29T06:52:31.061Z,100116.84
2019-01-29T06:55:39.644Z,100121.64
2019-01-29T06:58:58.429Z,100124.95
2019-01-29T07:02:08.247Z,100120.28
2019-01-29T07:05:17.081Z,100130.76
2019-01-29T07:08:25.735Z,100139.58
2019-01-29T07:11:34.316Z,100134.69
2019-01-29T07:14:42.988Z,100134.17
2019-01-29T07:18:02.002Z,100127.98
2019-01-29T07:21:11.400Z,100124.70
2019-01-29T07:24:19.891Z,100128.51
2019-01-29T07:27:38.833Z,100128.59
2019-01-29T07:30:47.485Z,100135.53
2019-01-29T07:33:56.078Z,100132.88
2019-01-29T07:37:04.747Z,100138.55
2019-01-29T07:40:13.580Z,100131.62
2019-01-29T07:43:22.318Z,100138.77
2019-01-29T07:46:30.973Z,100132.97
2019-01-29T07:49:39.725Z,100127.55
2019-01-29T07:52:48.217Z,100137.64
2019-01-29T07:55:56.781Z,100136.42
2019-01-29T07:59:15.811Z,100137.42
2019-01-29T08:02:24.392Z,100145.50
2019-01-29T08:05:32.998Z,100142.64
2019-01-29T08:08:41.773Z,100145.74
2019-01-29T08:11:50.313Z,100143.84
2019-01-29T08:14:58.912Z,100154.53
2019-01-29T08:18:10.109Z,100162.39
2019-01-29T08:21:18.580Z,100164.47
2019-01-29T08:24:27.848Z,100161.11
2019-01-29T08:27:36.544Z,100160.25
2019-01-29T08:30:45.141Z,100171.64
2019-01-29T08:33:53.737Z,100178.40
2019-01-29T08:37:02.383Z,100183.98
2019-01-29T08:40:11.442Z,100177.28
2019-01-29T08:43:19.934Z,100190.95
2019-01-29T08:46:28.494Z,100189.52
2019-01-29T08:49:37.111Z,100198.10
2019-01-29T08:52:55.817Z,100193.41
2019-01-29T08:56:04.552Z,100204.66
2019-01-29T08:59:15.002Z,100210.37
2019-01-29T09:02:23.499Z,100207.98
2019-01-29T09:05:33.209Z,100213.77
2019-01-29T09:08:52.195Z,100211.36
2019-01-29T09:12:00.776Z,100212.91
2019-01-29T09:15:12.920Z,100213.87
2019-01-29T09:18:21.412Z,100209.19
2019-01-29T09:21:30.004Z,100212.75
2019-01-29T09:24:38.534Z,100209.52
2019-01-29T09:27:47.216Z,100206.72
2019-01-29T09:30:55.816Z,100203.56
2019-01-29T09:34:14.731Z,100200.62
2019-01-29T09:37:23.385Z,100204.05
2019-01-29T09:40:31.973Z,100199.47
2019-01-29T09:43:40.535Z,100200.53
2019-01-29T09:46:49.210Z,100203.30
2019-01-29T09:49:57.807Z,100206.48
2019-01-29T09:53:06.389Z,100207.03
2019-01-29T09:56:25.365Z,100201.33
2019-01-29T09:59:34.015Z,100201.88
2019-01-29T10:02:42.687Z,100204.17
2019-01-29T10:05:51.172Z,100203.61
2019-01-29T10:08:59.792Z,100206.38
2019-01-29T10:12:08.385Z,100203.39
2019-01-29T10:15:21.685Z,100200.67
2019-01-29T10:18:40.650Z,100189.69
2019-01-29T10:21:50.726Z,100188.52
2019-01-29T10:24:59.293Z,100196.63
2019-01-29T10:28:08.027Z,100196.18
2019-01-29T10:31:16.679Z,100192.75
2019-01-29T10:34:25.145Z,100196.25
2019-01-29T10:37:44.005Z,100195.19
2019-01-29T10:40:52.594Z,100187.72
2019-01-29T10:44:01.177Z,100183.44
2019-01-29T10:47:11.351Z,100178.79
2019-01-29T10:50:23.923Z,100176.31
2019-01-29T10:53:32.426Z,100177.45
2019-01-29T10:56:41.114Z,100172.59
2019-01-29T10:59:49.577Z,100174.88
2019-01-29T11:02:58.281Z,100173.67
2019-01-29T11:06:07.287Z,100169.59
2019-01-29T11:09:15.924Z,100169.63
2019-01-29T11:12:24.408Z,100171.45
2019-01-29T11:15:44.090Z,100169.38
2019-01-29T11:18:52.837Z,100167.13
2019-01-29T11:22:01.584Z,100165.83
2019-01-29T11:25:23.552Z,100160.58
2019-01-29T11:28:32.133Z,100156.84
2019-01-29T11:31:40.593Z,100156.64
2019-01-29T11:34:49.178Z,100163.26
2019-01-29T11:37:57.781Z,100157.09
2019-01-29T11:41:06.648Z,100150.25
2019-01-29T11:44:15.278Z,100154.41
2019-01-29T11:47:23.942Z,100156.08
2019-01-29T11:50:42.797Z,100154.28
2019-01-29T11:53:51.418Z,100154.53
2019-01-29T11:57:00.036Z,100157.49
2019-01-29T12:00:13.861Z,100155.36
2019-01-29T12:03:22.432Z,100144.66
2019-01-29T12:06:31.107Z,100158.78
2019-01-29T12:09:39.718Z,100155.81
2019-01-29T12:12:48.449Z,100158.48
2019-01-29T12:15:57.049Z,100157.73
2019-01-29T12:19:15.817Z,100163.30
2019-01-29T12:22:24.295Z,100161.17
2019-01-29T12:25:32.967Z,100164.31
2019-01-29T12:28:41.646Z,100152.64
2019-01-29T12:31:50.220Z,100160.78
2019-01-29T12:34:58.843Z,100153.52
2019-01-29T12:38:07.870Z,100156.74
2019-01-29T12:41:16.437Z,100155.08
2019-01-29T12:44:25.030Z,100156.66
2019-01-29T12:47:44.046Z,100154.22
2019-01-29T12:50:59.937Z,100154.36
2019-01-29T12:54:08.727Z,100150.82
2019-01-29T12:57:17.396Z,100150.03
2019-01-29T13:00:28.383Z,100146.94
2019-01-29T13:03:36.898Z,100149.70
2019-01-29T13:06:45.526Z,100149.56
2019-01-29T13:09:54.011Z,100142.21
2019-01-29T13:13:13.469Z,100135.61
2019-01-29T13:16:32.770Z,100134.77
2019-01-29T13:19:41.357Z,100136.96
2019-01-29T13:22:49.973Z,100134.77
2019-01-29T13:26:00.475Z,100137.64
2019-01-29T13:29:12.096Z,100133.03
2019-01-29T13:32:20.671Z,100130.69
2019-01-29T13:35:32.590Z,100124.65
2019-01-29T13:38:51.709Z,100133.48
2019-01-29T13:42:01.981Z,100126.79
2019-01-29T13:45:11.892Z,100124.29
2019-01-29T13:48:20.718Z,100130.02
2019-01-29T13:51:29.292Z,100128.75
2019-01-29T13:54:37.891Z,100131.33
2019-01-29T13:57:46.538Z,100137.03
2019-01-29T14:00:55.132Z,100126.84
2019-01-29T14:04:16.054Z,100130.59
2019-01-29T14:07:24.577Z,100128.22
2019-01-29T14:10:33.210Z,100128.17
2019-01-29T14:13:41.780Z,100121.31
2019-01-29T14:16:50.410Z,100113.38
2019-01-29T14:19:58.973Z,100119.30
2019-01-29T14:23:17.993Z,100118.25
2019-01-29T14:26:26.555Z,100119.77
2019-01-29T14:29:36.480Z,100116.12
2019-01-29T14:32:45.049Z,100112.37
2019-01-29T14:35:53.647Z,100119.88
2019-01-29T14:39:38.973Z,100114.36
2019-01-29T14:42:50.165Z,100121.09
2019-01-29T14:45:59.360Z,100114.58
2019-01-29T14:49:18.220Z,100107.95
2019-01-29T14:52:26.873Z,100111.28
2019-01-29T14:55:35.459Z,100107.20
2019-01-29T14:58:45.396Z,100117.80
2019-01-29T15:01:53.992Z,100109.99
2019-01-29T15:05:12.942Z,100106.02
2019-01-29T15:08:21.630Z,100107.09
2019-01-29T15:11:30.270Z,100108.37
2019-01-29T15:14:38.797Z,100106.73
2019-01-29T15:18:06.453Z,100102.87
2019-01-29T15:21:14.997Z,100107.72
2019-01-29T15:24:33.731Z,100113.55
2019-01-29T15:27:42.439Z,100110.78
2019-01-29T15:30:51.346Z,100105.25
2019-01-29T15:33:59.907Z,100103.88
2019-01-29T15:37:08.502Z,100099.32
2019-01-29T15:40:18.524Z,100116.06
2019-01-29T15:43:26.978Z,100096.66
2019-01-29T15:46:46.041Z,100100.17
2019-01-29T15:49:54.702Z,100104.02
2019-01-29T15:53:03.174Z,100098.84
2019-01-29T15:56:11.720Z,100095.99
2019-01-29T15:59:21.749Z,100097.58
2019-01-29T16:02:41.806Z,100093.69
2019-01-29T16:05:50.357Z,100091.77
2019-01-29T16:08:59.151Z,100086.86
2019-01-29T16:12:07.729Z,100087.09
2019-01-29T16:15:18.595Z,100085.52
2019-01-29T16:18:27.107Z,100084.52
2019-01-29T16:21:35.676Z,100083.40
2019-01-29T16:24:44.177Z,100080.16
2019-01-29T16:28:03.136Z,100083.63
2019-01-29T16:31:11.696Z,100075.80
2019-01-29T16:34:20.254Z,100076.37
2019-01-29T16:37:28.865Z,100071.52
2019-01-29T16:40:38.161Z,100092.41
2019-01-29T16:43:46.616Z,100077.17
2019-01-29T16:46:55.222Z,100070.91
2019-01-29T16:50:03.951Z,100068.41
2019-01-29T16:53:12.585Z,100072.16
2019-01-29T16:56:21.340Z,100070.65
2019-01-29T16:59:29.961Z,100058.85
2019-01-29T17:02:48.829Z,100069.66
2019-01-29T17:05:57.371Z,100070.58
2019-01-29T17:09:10.757Z,100062.54
2019-01-29T17:12:19.195Z,100063.39
2019-01-29T17:15:29.609Z,100057.23
2019-01-29T17:18:38.187Z,100054.25
2019-01-29T17:21:56.941Z,100061.03
2019-01-29T17:25:06.387Z,100052.34
2019-01-29T17:28:25.275Z,100064.94
2019-01-29T17:31:34.979Z,100056.34
2019-01-29T17:34:43.540Z,100054.40
2019-01-29T17:37:52.038Z,100068.79
2019-01-29T17:41:10.915Z,100054.41
2019-01-29T17:44:19.494Z,100054.10
2019-01-29T17:47:28.111Z,100050.02
2019-01-29T17:50:38.946Z,100056.45
2019-01-29T17:53:47.494Z,100048.73
2019-01-29T17:56:55.960Z,100052.33
2019-01-29T18:00:05.594Z,100051.50
2019-01-29T18:03:14.273Z,100049.94
2019-01-29T18:06:22.814Z,100047.94
2019-01-29T18:09:31.281Z,100052.45
2019-01-29T18:12:39.837Z,100053.48
2019-01-29T18:15:48.334Z,100053.83
2019-01-29T18:19:07.322Z,100052.73
2019-01-29T18:22:15.978Z,100056.67
2019-01-29T18:25:24.771Z,100055.59
2019-01-29T18:28:33.377Z,100052.91
2019-01-29T18:31:41.985Z,100059.53
2019-01-29T18:34:50.557Z,100047.13
2019-01-29T18:37:59.322Z,100058.41
2019-01-29T18:41:08.106Z,100053.02
2019-01-29T18:44:16.578Z,100050.81
2019-01-29T18:47:35.438Z,100049.19
2019-01-29T18:50:44.024Z,100052.99
2019-01-29T18:53:53.695Z,100056.70
2019-01-29T18:57:02.401Z,100054.56
2019-01-29T19:00:18.135Z,100052.55
2019-01-29T19:03:26.580Z,100047.81
2019-01-29T19:06:35.081Z,100051.38
2019-01-29T19:09:53.986Z,100052.08
2019-01-29T19:13:02.456Z,100052.38
2019-01-29T19:16:09.536Z,100051.25
2019-01-29T19:19:18.073Z,100047.37
2019-01-29T19:22:26.644Z,100046.84
2019-01-29T19:25:35.239Z,100039.95
2019-01-29T19:28:54.174Z,100041.80
2019-01-29T19:32:02.743Z,100041.56
2019-01-29T19:35:11.315Z,100045.36
2019-01-29T19:38:20.091Z,100038.26
2019-01-29T19:41:28.658Z,100034.06
2019-01-29T19:44:37.095Z,100038.45
2019-01-29T19:47:57.169Z,100035.06
2019-01-29T19:51:05.664Z,100044.31
2019-01-29T19:54:14.205Z,100045.88
2019-01-29T19:57:24.906Z,100042.64
2019-01-29T20:00:36.789Z,100041.64
2019-01-29T20:03:45.235Z,100049.32
2019-01-29T20:07:04.766Z,100037.14
2019-01-29T20:10:23.868Z,100034.06
2019-01-29T20:13:32.329Z,100030.77
2019-01-29T20:16:40.912Z,100031.28
2019-01-29T20:19:49.459Z,100037.91
2019-01-29T20:23:07.354Z,100037.48
2019-01-29T20:26:08.311Z,100034.53
2019-01-29T20:29:16.859Z,100035.58
2019-01-29T20:32:35.626Z,100037.16
2019-01-29T20:35:44.139Z,100027.89
2019-01-29T20:38:52.718Z,100028.06
2019-01-29T20:42:01.421Z,100030.94
2019-01-29T20:45:11.576Z,100029.96
2019-01-29T20:48:30.293Z,100030.69
2019-01-29T20:51:38.877Z,100031.83
2019-01-29T20:54:47.423Z,100029.96
2019-01-29T20:57:56.132Z,100025.34
2019-01-29T21:01:09.658Z,100027.93
2019-01-29T21:04:19.576Z,100029.64
2019-01-29T21:07:38.522Z,100024.81
2019-01-29T21:10:47.080Z,100027.75
2019-01-29T21:13:56.055Z,100021.45
2019-01-29T21:17:04.820Z,100017.98
2019-01-29T21:20:17.728Z,100017.16
2019-01-29T21:23:26.212Z,100020.91
2019-01-29T21:26:44.981Z,100021.14
2019-01-29T21:29:53.532Z,100019.33
2019-01-29T21:33:02.008Z,100010.84
2019-01-29T21:36:10.468Z,100015.86
2019-01-29T21:39:29.110Z,100015.62
2019-01-29T21:42:37.569Z,100011.84
2019-01-29T21:45:46.072Z,100011.72
2019-01-29T21:48:54.765Z,100013.41
2019-01-29T21:52:03.216Z,100000.81
2019-01-29T21:55:22.090Z,100001.93
2019-01-29T21:58:30.680Z,100008.47
2019-01-29T22:01:39.211Z,100001.84
2019-01-29T22:04:48.305Z,100005.14
2019-01-29T22:07:57.675Z,99999.58
2019-01-29T22:11:16.629Z,99996.38
2019-01-29T22:14:25.097Z,99988.55
2019-01-29T22:17:33.642Z,99989.75
2019-01-29T22:20:43.254Z,99989.27
2019-01-29T22:23:51.738Z,99994.20
2019-01-29T22:27:00.417Z,99986.02
2019-01-29T22:30:19.000Z,99984.72
2019-01-29T22:33:27.431Z,99983.36
2019-01-29T22:36:36.056Z,99981.33
2019-01-29T22:39:44.523Z,99974.75
2019-01-29T22:43:03.363Z,99974.06
2019-01-29T22:46:12.085Z,99976.98
2019-01-29T22:49:20.739Z,99970.30
2019-01-29T22:52:29.294Z,99965.61
2019-01-29T22:55:37.875Z,99956.73
2019-01-29T22:58:46.350Z,99960.70
2019-01-29T23:01:55.010Z,99962.48
2019-01-29T23:05:13.750Z,99958.79
2019-01-29T23:08:22.354Z,99948.75
2019-01-29T23:11:30.914Z,99947.05
2019-01-29T23:14:39.477Z,99946.01
2019-01-29T23:17:48.218Z,99943.95
2019-01-29T23:20:56.784Z,99934.31
2019-01-29T23:24:15.590Z,99932.02
2019-01-29T23:27:24.249Z,99933.64
2019-01-29T23:30:32.814Z,99927.44
2019-01-29T23:33:41.253Z,99919.36
2019-01-29T23:36:49.914Z,99928.20
2019-01-29T23:39:58.459Z,99925.06
2019-01-29T23:43:17.242Z,99918.85
2019-01-29T23:46:25.828Z,99918.16
2019-01-29T23:49:34.390Z,99918.31
2019-01-29T23:52:42.856Z,99924.15
2019-01-29T23:55:51.406Z,99911.38
2019-01-29T23:58:59.057Z,99915.48
